Time;durP1;ratioP1;P1;durP2;ratioP2;P2;SDS_P1;SDS_P2;PMS_P1;PMS_P2;Temp;Humidity;BMP_temperature;BMP_pressure;BME280_temperature;BME280_humidity;BME280_pressure;Samples;Min_cycle;Max_cycle;Signal;HPM_P1;HPM_P2
2022/02/03 00:04:37;;;;;;;28.70;17.00;;;5.40;70.00;;;;;;5016419;28;20068;-85
2022/02/03 00:07:08;;;;;;;27.33;17.08;;;5.30;70.30;;;;;;5015221;28;20497;-87
2022/02/03 00:26:33;;;;;;;24.40;16.30;;;5.10;71.10;;;;;;4975425;28;20045;-88
2022/02/03 00:29:14;;;;;;;22.47;15.17;;;5.00;71.70;;;;;;5007381;28;20031;-87
2022/02/03 00:31:58;;;;;;;27.40;16.30;;;4.90;72.00;;;;;;5015098;28;20034;-86
2022/02/03 00:34:34;;;;;;;31.80;16.70;;;4.90;72.30;;;;;;5015082;28;20490;-86
2022/02/03 00:50:35;;;;;;;23.20;12.87;;;4.80;72.70;;;;;;5016109;28;20053;-86
2022/02/03 00:53:03;;;;;;;19.90;11.77;;;4.80;72.50;;;;;;5014668;28;20041;-86
2022/02/03 00:55:36;;;;;;;24.50;12.60;;;4.80;72.10;;;;;;5014628;28;20045;-86
2022/02/03 00:58:04;;;;;;;16.90;10.17;;;4.80;72.50;;;;;;5014389;28;20026;-86
2022/02/03 01:00:33;;;;;;;17.80;10.43;;;4.90;72.10;;;;;;5014175;28;20080;-85
2022/02/03 01:03:12;;;;;;;18.33;9.90;;;4.90;71.50;;;;;;5014452;28;20018;-85
2022/02/03 01:05:41;;;;;;;14.80;9.07;;;4.80;71.60;;;;;;5014519;28;20022;-85
2022/02/03 01:08:17;;;;;;;13.63;8.33;;;4.80;71.70;;;;;;5013340;28;20026;-86
2022/02/03 01:10:56;;;;;;;14.20;8.50;;;4.90;71.20;;;;;;5014621;28;20486;-86
2022/02/03 01:16:05;;;;;;;17.73;8.03;;;4.90;70.80;;;;;;5015634;28;20042;-86
2022/02/03 01:19:33;;;;;;;14.53;9.33;;;5.00;70.60;;;;;;5013955;28;20113;-86
2022/02/03 01:53:39;;;;;;;28.30;14.60;;;4.40;69.50;;;;;;5014616;28;20119;-86
2022/02/03 01:56:08;;;;;;;31.80;15.90;;;4.40;70.00;;;;;;5014868;28;20029;-86
2022/02/03 01:58:56;;;;;;;22.43;14.07;;;4.40;70.30;;;;;;5012098;28;20030;-86
2022/02/03 02:01:32;;;;;;;32.90;19.10;;;4.40;70.40;;;;;;5012504;28;20026;-85
2022/02/03 02:04:24;;;;;;;31.13;17.03;;;4.40;70.20;;;;;;5013427;28;20435;-86
2022/02/03 02:06:59;;;;;;;26.03;15.33;;;4.40;70.40;;;;;;5012861;28;20037;-85
2022/02/03 02:10:16;;;;;;;24.97;14.23;;;4.30;70.90;;;;;;5012829;28;20137;-85
2022/02/03 02:13:07;;;;;;;28.03;15.47;;;4.30;71.30;;;;;;4983026;28;20038;-85
2022/02/03 02:42:54;;;;;;;18.17;11.83;;;4.10;71.10;;;;;;5013902;28;20033;-85
2022/02/03 02:44:54;;;;;;;22.40;13.03;;;4.10;71.20;;;;;;4968439;28;20066;-85
2022/02/03 02:47:34;;;;;;;22.47;14.13;;;4.10;71.40;;;;;;4956802;28;20027;-85
2022/02/03 02:50:06;;;;;;;31.80;15.50;;;4.00;71.20;;;;;;5009091;28;20042;-86
2022/02/03 02:52:43;;;;;;;34.20;17.53;;;4.10;71.10;;;;;;5013643;28;20025;-86
2022/02/03 03:31:31;;;;;;;19.57;11.27;;;3.80;72.50;;;;;;5015321;28;20048;-86
2022/02/03 03:36:55;;;;;;;17.05;10.90;;;3.70;73.00;;;;;;4997761;28;20041;-86
2022/02/03 03:39:29;;;;;;;19.03;11.20;;;3.80;72.80;;;;;;5015850;28;20429;-85
2022/02/03 03:41:58;;;;;;;16.23;10.97;;;3.80;72.30;;;;;;5017141;28;20037;-85
2022/02/03 03:44:28;;;;;;;18.00;11.17;;;3.70;72.00;;;;;;5015611;28;20463;-85
2022/02/03 03:47:01;;;;;;;18.00;10.30;;;3.80;72.30;;;;;;5015882;28;20088;-85
2022/02/03 03:49:44;;;;;;;21.13;12.10;;;3.80;72.20;;;;;;5015598;28;20036;-85
2022/02/03 03:52:16;;;;;;;22.33;12.30;;;3.90;71.90;;;;;;5015803;28;20022;-86
2022/02/03 03:58:03;;;;;;;21.37;11.20;;;3.70;71.50;;;;;;5017226;28;20030;-85
2022/02/03 04:30:20;;;;;;;14.60;9.47;;;3.40;71.50;;;;;;5016444;28;20072;-85
2022/02/03 04:33:11;;;;;;;16.47;9.27;;;3.40;71.80;;;;;;5015665;28;20030;-86
2022/02/03 05:08:31;;;;;;;13.17;7.97;;;3.40;71.50;;;;;;5015579;28;20124;-82
2022/02/03 05:23:20;;;;;;;10.98;7.15;;;3.10;72.60;;;;;;5015242;28;20120;-86
2022/02/03 05:32:35;;;;;;;15.00;8.40;;;3.00;72.60;;;;;;5015442;28;20044;-86
2022/02/03 05:44:14;;;;;;;19.93;8.37;;;3.10;72.80;;;;;;5015360;28;20080;-86
2022/02/03 06:08:24;;;;;;;8.83;4.50;;;3.30;72.50;;;;;;5014455;28;20521;-86
2022/02/03 06:13:54;;;;;;;11.03;3.53;;;3.30;72.30;;;;;;5014295;28;20404;-86
2022/02/03 06:16:47;;;;;;;6.00;3.07;;;3.30;72.30;;;;;;5013204;28;20036;-86
2022/02/03 06:27:24;;;;;;;7.67;4.27;;;3.40;72.00;;;;;;5013949;28;20109;-85
2022/02/03 06:27:40;;;;;;;8.97;4.63;;;3.50;71.40;;;;;;5014036;28;20061;-86
2022/02/03 06:30:08;;;;;;;9.10;4.70;;;3.50;70.50;;;;;;5014157;28;20046;-86
2022/02/03 06:32:38;;;;;;;10.07;5.13;;;3.40;70.30;;;;;;5013807;28;20042;-85
2022/02/03 06:35:04;;;;;;;11.83;5.97;;;3.30;70.30;;;;;;5012752;28;20041;-85
2022/02/03 06:37:31;;;;;;;14.63;5.73;;;3.30;70.70;;;;;;5013790;28;20145;-86
2022/02/03 06:39:57;;;;;;;10.50;5.67;;;3.30;70.80;;;;;;5013981;28;20033;-85
2022/02/03 06:42:24;;;;;;;17.40;6.37;;;3.30;71.00;;;;;;5012717;28;20026;-86
2022/02/03 06:44:54;;;;;;;15.77;8.27;;;3.30;70.50;;;;;;5012510;28;20029;-85
2022/02/03 06:52:27;;;;;;;21.03;9.90;;;3.30;70.60;;;;;;5013596;28;20057;-86
2022/02/03 06:57:29;;;;;;;21.27;10.60;;;3.30;70.30;;;;;;5016013;28;20030;-85
2022/02/03 07:00:03;;;;;;;20.10;10.60;;;3.30;70.30;;;;;;5012214;28;20533;-86
2022/02/03 07:02:32;;;;;;;16.77;10.47;;;3.20;70.40;;;;;;5012393;28;20471;-84
2022/02/03 07:04:58;;;;;;;22.90;10.07;;;3.20;70.60;;;;;;5012018;28;20029;-85
2022/02/03 07:07:25;;;;;;;21.17;9.93;;;3.20;70.70;;;;;;5015943;28;20026;-84
2022/02/03 07:09:52;;;;;;;21.43;9.73;;;3.20;70.50;;;;;;5017263;28;20473;-84
2022/02/03 07:12:19;;;;;;;21.30;10.53;;;3.20;70.30;;;;;;5015591;28;20026;-82
2022/02/03 07:14:45;;;;;;;28.13;10.50;;;3.30;70.40;;;;;;5015600;28;20034;-87
2022/02/03 07:17:11;;;;;;;26.13;10.43;;;3.30;70.20;;;;;;5016754;28;20109;-84
2022/02/03 07:19:43;;;;;;;20.53;9.80;;;3.30;70.20;;;;;;5016126;28;20026;-85
2022/02/03 07:22:09;;;;;;;22.52;9.27;;;3.30;70.40;;;;;;5016481;28;20112;-85
2022/02/03 07:24:35;;;;;;;19.13;9.70;;;3.30;70.70;;;;;;5016196;28;20460;-85
2022/02/03 07:27:00;;;;;;;15.50;8.27;;;3.40;70.70;;;;;;5015513;28;20026;-85
2022/02/03 07:29:26;;;;;;;17.97;8.57;;;3.50;70.50;;;;;;5010178;28;20101;-84
2022/02/03 07:31:52;;;;;;;16.43;8.00;;;3.50;70.10;;;;;;4996379;28;20490;-85
2022/02/03 07:34:18;;;;;;;20.07;7.77;;;3.60;70.10;;;;;;4995609;28;20046;-76
2022/02/03 07:36:46;;;;;;;20.20;7.70;;;3.60;70.00;;;;;;4994643;28;20029;-74
2022/02/03 07:39:12;;;;;;;24.70;8.23;;;3.70;70.50;;;;;;4994382;28;20380;-75
2022/02/03 07:41:38;;;;;;;16.63;7.33;;;3.70;71.00;;;;;;4996597;28;20019;-78
2022/02/03 07:44:04;;;;;;;16.07;7.23;;;3.70;71.10;;;;;;4996790;28;20097;-79
2022/02/03 07:46:31;;;;;;;17.60;7.60;;;3.70;71.00;;;;;;4995658;28;20026;-79
2022/02/03 07:48:57;;;;;;;20.30;8.03;;;3.90;71.10;;;;;;4994304;28;20035;-77
2022/02/03 07:51:23;;;;;;;11.30;7.13;;;3.90;71.10;;;;;;4996799;28;20038;-77
2022/02/03 07:53:49;;;;;;;14.90;7.63;;;3.90;71.30;;;;;;4996958;28;20582;-77
2022/02/03 07:56:15;;;;;;;16.23;7.13;;;4.00;71.20;;;;;;4994857;28;20038;-79
2022/02/03 07:58:41;;;;;;;12.73;6.23;;;4.00;71.00;;;;;;4994176;28;20038;-83
2022/02/03 08:01:06;;;;;;;12.93;6.33;;;4.00;70.90;;;;;;4995954;28;20434;-77
2022/02/03 08:03:32;;;;;;;9.23;5.60;;;4.10;70.90;;;;;;4995717;28;20113;-78
2022/02/03 08:06:03;;;;;;;8.63;4.80;;;4.20;70.80;;;;;;4995605;28;20033;-77
2022/02/03 08:08:43;;;;;;;9.13;5.33;;;4.20;70.40;;;;;;4995248;28;20117;-78
2022/02/03 08:11:14;;;;;;;9.47;5.70;;;4.30;70.30;;;;;;4994785;28;20031;-79
2022/02/03 08:16:40;;;;;;;11.87;5.80;;;4.50;69.90;;;;;;4974396;28;20034;-78
2022/02/03 08:19:14;;;;;;;18.13;5.00;;;4.60;69.60;;;;;;5010951;28;20044;-78
2022/02/03 08:21:44;;;;;;;8.43;4.20;;;4.70;69.70;;;;;;5013825;28;20033;-78
2022/02/03 08:24:32;;;;;;;10.37;3.83;;;4.70;69.20;;;;;;5014068;28;20026;-78
2022/02/03 08:27:21;;;;;;;7.70;3.80;;;4.80;69.10;;;;;;5013643;28;20060;-77
2022/02/03 08:32:34;;;;;;;6.20;2.73;;;5.00;68.40;;;;;;4996354;28;20407;-78
2022/02/03 08:38:15;;;;;;;5.77;2.70;;;5.20;67.90;;;;;;4996045;28;20117;-78
2022/02/03 08:40:40;;;;;;;7.13;2.60;;;5.30;67.60;;;;;;4989979;28;20023;-87
2022/02/03 08:43:06;;;;;;;5.53;2.80;;;5.40;67.50;;;;;;4996043;28;20023;-78
2022/02/03 08:45:31;;;;;;;5.60;3.10;;;5.50;67.10;;;;;;5014036;28;20520;-79
2022/02/03 08:47:57;;;;;;;4.73;2.77;;;5.60;67.20;;;;;;5012398;28;20435;-74
2022/02/03 08:50:23;;;;;;;8.37;2.97;;;5.70;67.00;;;;;;5012298;28;20026;-79
2022/02/03 08:56:20;;;;;;;5.73;2.80;;;5.90;66.80;;;;;;5013405;28;20045;-79
2022/02/03 09:56:23;;;;;;;19.10;8.03;;;7.40;67.00;;;;;;5013924;28;20046;-81
2022/02/03 09:58:20;;;;;;;9.10;5.73;;;7.50;66.80;;;;;;5008663;28;20041;-79
2022/02/03 10:01:13;;;;;;;19.00;8.37;;;7.60;66.00;;;;;;5012183;28;20025;-80
2022/02/03 10:06:16;;;;;;;15.23;5.53;;;7.80;65.60;;;;;;5014046;28;20279;-79
2022/02/03 10:08:53;;;;;;;8.18;5.38;;;7.80;64.70;;;;;;5012190;28;20053;-80
2022/02/03 10:11:22;;;;;;;13.27;6.10;;;7.90;64.30;;;;;;5013889;28;20025;-80
2022/02/03 10:13:49;;;;;;;9.77;4.23;;;8.10;64.10;;;;;;5013581;28;20022;-79
2022/02/03 10:16:21;;;;;;;10.17;4.30;;;8.10;64.30;;;;;;5014061;28;20034;-79
2022/02/03 10:18:49;;;;;;;7.63;3.50;;;8.20;63.30;;;;;;5013816;28;20014;-79
2022/02/03 10:21:17;;;;;;;13.40;3.90;;;8.30;63.00;;;;;;5013956;28;20501;-79
2022/02/03 10:24:01;;;;;;;10.63;4.13;;;8.40;62.70;;;;;;5012522;28;20048;-78
2022/02/03 10:26:44;;;;;;;14.00;4.77;;;8.50;62.50;;;;;;5012443;28;20041;-79
2022/02/03 10:29:35;;;;;;;9.17;3.80;;;8.50;62.40;;;;;;5013581;28;20025;-79
2022/02/03 10:32:01;;;;;;;12.00;4.57;;;8.70;62.20;;;;;;5012674;28;20096;-80
2022/02/03 10:34:30;;;;;;;10.10;5.10;;;8.70;61.50;;;;;;5013166;28;20033;-78
2022/02/03 10:42:17;;;;;;;8.33;3.77;;;9.00;61.40;;;;;;5012953;28;20040;-80
2022/02/03 10:47:41;;;;;;;6.60;3.40;;;9.20;61.10;;;;;;5013376;28;20030;-80
2022/02/03 11:08:53;;;;;;;6.77;1.80;;;10.00;58.70;;;;;;5013395;28;20133;-79
2022/02/03 11:11:32;;;;;;;6.40;1.70;;;10.10;58.40;;;;;;5013389;28;20082;-80
2022/02/03 11:14:00;;;;;;;3.97;1.50;;;10.10;58.30;;;;;;5013272;28;20562;-79
2022/02/03 11:16:28;;;;;;;5.03;1.30;;;10.20;58.00;;;;;;5011969;28;20102;-79
2022/02/03 11:19:01;;;;;;;4.50;1.53;;;10.30;57.80;;;;;;5013467;28;20363;-79
2022/02/03 11:21:27;;;;;;;6.67;1.77;;;10.40;57.70;;;;;;5013417;28;20018;-79
2022/02/03 11:24:01;;;;;;;5.23;1.63;;;10.50;57.10;;;;;;5012868;28;20509;-79
2022/02/03 11:30:29;;;;;;;1.97;1.40;;;10.60;57.20;;;;;;5012871;28;20029;-79
2022/02/03 11:32:31;;;;;;;5.63;1.80;;;10.70;57.30;;;;;;5007990;28;20029;-81
2022/02/03 11:35:30;;;;;;;4.20;1.73;;;10.80;57.00;;;;;;5012224;28;20033;-78
2022/02/03 12:06:41;;;;;;;6.70;1.48;;;11.60;56.00;;;;;;4993472;28;20036;-78
2022/02/03 12:18:00;;;;;;;2.75;1.60;;;11.70;54.90;;;;;;5013089;28;20081;-78
2022/02/03 12:20:59;;;;;;;2.60;1.38;;;11.80;53.60;;;;;;5015749;28;20091;-76
2022/02/03 12:24:10;;;;;;;3.05;1.63;;;11.80;53.60;;;;;;5014368;28;20084;-78
2022/02/03 12:28:58;;;;;;;3.83;1.20;;;11.90;53.20;;;;;;5015703;28;20092;-77
2022/02/03 12:37:08;;;;;;;4.30;1.70;;;12.10;50.90;;;;;;5015554;28;20279;-74
2022/02/03 12:42:51;;;;;;;3.05;1.50;;;12.10;50.10;;;;;;5003149;28;20096;-78
2022/02/03 12:45:23;;;;;;;4.78;1.55;;;12.20;50.60;;;;;;5014181;28;20514;-77
2022/02/03 12:47:50;;;;;;;3.15;1.60;;;12.20;50.30;;;;;;5015420;28;20022;-75
2022/02/03 12:50:27;;;;;;;4.90;1.50;;;12.30;49.60;;;;;;5013781;28;20025;-75
2022/02/03 12:52:58;;;;;;;4.25;2.08;;;12.40;49.90;;;;;;5014059;28;20478;-77
2022/02/03 12:55:37;;;;;;;3.75;1.77;;;12.50;49.20;;;;;;5013707;28;20491;-77
2022/02/03 12:58:13;;;;;;;3.30;1.60;;;12.50;49.00;;;;;;5012162;28;20112;-78
2022/02/03 13:00:48;;;;;;;3.35;2.17;;;12.50;49.10;;;;;;5014330;28;20018;-79
2022/02/03 13:03:16;;;;;;;4.68;1.70;;;12.60;47.70;;;;;;5012179;28;20378;-78
2022/02/03 13:05:51;;;;;;;3.83;1.40;;;12.70;47.20;;;;;;5014629;28;20026;-78
2022/02/03 13:08:17;;;;;;;3.63;1.23;;;12.70;47.30;;;;;;5014784;28;20022;-77
2022/02/03 13:10:43;;;;;;;4.03;1.80;;;12.70;47.30;;;;;;5014863;28;20088;-78
2022/02/03 13:13:32;;;;;;;2.88;1.45;;;12.70;45.20;;;;;;5014886;28;20490;-77
2022/02/03 13:16:11;;;;;;;3.88;1.35;;;12.70;45.80;;;;;;5014489;28;20030;-77
2022/02/03 13:18:45;;;;;;;2.08;1.30;;;12.70;46.50;;;;;;5014682;28;20022;-78
2022/02/03 13:21:31;;;;;;;2.85;1.50;;;12.70;46.40;;;;;;5013295;28;20378;-78
2022/02/03 13:26:49;;;;;;;3.20;1.77;;;12.70;44.60;;;;;;5014667;28;20398;-82
2022/02/03 13:29:27;;;;;;;2.88;1.52;;;12.70;45.80;;;;;;5013120;28;20046;-73
2022/02/03 13:31:58;;;;;;;4.43;1.38;;;12.60;45.40;;;;;;5014771;28;20033;-73
2022/02/03 13:34:44;;;;;;;2.55;1.27;;;12.60;45.80;;;;;;5014715;28;20430;-74
2022/02/03 13:37:28;;;;;;;3.47;1.42;;;12.50;44.20;;;;;;5014593;28;20026;-73
2022/02/03 13:40:08;;;;;;;3.10;1.20;;;12.40;45.60;;;;;;5014073;28;20402;-71
2022/02/03 13:42:33;;;;;;;2.03;1.15;;;12.40;46.20;;;;;;5014465;28;20025;-73
2022/02/03 13:45:05;;;;;;;4.57;1.10;;;12.40;46.10;;;;;;5014045;28;20022;-73
2022/02/03 13:47:35;;;;;;;3.80;1.25;;;12.50;45.90;;;;;;5014431;28;20022;-73
2022/02/03 13:50:13;;;;;;;3.15;1.02;;;12.60;46.70;;;;;;5013959;28;20030;-73
2022/02/03 14:15:14;;;;;;;2.38;1.20;;;12.60;48.30;;;;;;5013520;28;20041;-70
2022/02/03 14:28:10;;;;;;;7.90;2.85;;;12.60;49.70;;;;;;5013968;28;20573;-70
2022/02/03 14:30:44;;;;;;;73.05;32.03;;;12.60;49.60;;;;;;5013865;28;20112;-71
2022/02/03 14:33:11;;;;;;;22.58;14.32;;;12.60;49.50;;;;;;5013683;28;20014;-70
2022/02/03 14:35:38;;;;;;;4.72;1.83;;;12.70;49.30;;;;;;5013447;28;20033;-70
2022/02/03 14:38:15;;;;;;;4.65;1.17;;;12.60;50.00;;;;;;5013524;28;20018;-70
2022/02/03 14:40:55;;;;;;;12.55;4.20;;;12.60;50.10;;;;;;5013607;28;20045;-70
2022/02/03 14:43:20;;;;;;;3.63;1.00;;;12.50;50.30;;;;;;5013551;28;20076;-71
2022/02/03 14:45:47;;;;;;;4.47;1.38;;;12.50;50.60;;;;;;5013444;28;20033;-71
2022/02/03 14:48:15;;;;;;;12.30;2.92;;;12.40;51.20;;;;;;5011998;28;20033;-70
2022/02/03 14:50:42;;;;;;;11.90;1.80;;;12.30;51.80;;;;;;5013187;28;20022;-70
2022/02/03 14:53:15;;;;;;;7.00;2.05;;;12.30;52.60;;;;;;5013098;28;20045;-70
2022/02/03 14:58:28;;;;;;;5.78;1.17;;;12.30;53.30;;;;;;5013275;28;20077;-70
2022/02/03 15:00:56;;;;;;;11.73;5.65;;;12.30;53.60;;;;;;5013001;28;20479;-70
2022/02/03 15:03:24;;;;;;;5.47;1.20;;;12.20;54.20;;;;;;5013275;28;20076;-69
2022/02/03 15:06:07;;;;;;;8.00;1.70;;;12.20;54.50;;;;;;5012003;28;20473;-71
2022/02/03 15:11:09;;;;;;;7.43;2.65;;;12.00;55.70;;;;;;5010086;28;20044;-70
2022/02/03 15:13:43;;;;;;;8.55;2.65;;;12.00;56.50;;;;;;5011489;28;20445;-70
2022/02/03 15:16:14;;;;;;;6.43;3.13;;;12.00;56.80;;;;;;5012746;28;20064;-72
2022/02/03 15:18:40;;;;;;;11.23;3.28;;;11.90;57.10;;;;;;5012969;28;20021;-72
2022/02/03 15:21:06;;;;;;;6.25;2.63;;;11.90;57.80;;;;;;5011629;28;20021;-72
2022/02/03 15:23:33;;;;;;;11.50;3.33;;;11.90;57.60;;;;;;5012238;28;20489;-72
2022/02/03 15:25:58;;;;;;;13.15;5.00;;;11.90;57.60;;;;;;5010212;28;20398;-72
2022/02/03 15:28:24;;;;;;;8.35;4.10;;;11.80;57.90;;;;;;5013803;28;20069;-72
2022/02/03 15:30:50;;;;;;;9.18;4.28;;;11.70;58.20;;;;;;5016561;28;20056;-70
2022/02/03 15:33:22;;;;;;;10.13;3.78;;;11.70;58.20;;;;;;5016661;28;20026;-72
2022/02/03 15:35:52;;;;;;;7.27;3.17;;;11.70;58.30;;;;;;5016348;28;20390;-72
2022/02/03 15:38:20;;;;;;;6.13;2.20;;;11.70;58.30;;;;;;5016743;28;20025;-72
2022/02/03 15:40:48;;;;;;;13.55;2.38;;;11.70;58.40;;;;;;5016691;28;20022;-72
2022/02/03 15:45:53;;;;;;;9.63;4.43;;;11.60;59.30;;;;;;5014639;28;20390;-72
2022/02/03 15:56:16;;;;;;;19.00;11.52;;;11.50;58.70;;;;;;5016538;28;20030;-73
2022/02/03 16:17:18;;;;;;;10.65;5.03;;;11.10;59.40;;;;;;5014671;28;20034;-72
2022/02/03 16:22:42;;;;;;;9.40;4.10;;;11.00;59.90;;;;;;5015629;28;20517;-71
2022/02/03 16:54:37;;;;;;;15.75;6.95;;;10.60;62.10;;;;;;5015119;28;20398;-72
2022/02/03 16:57:13;;;;;;;16.80;6.05;;;10.50;62.00;;;;;;5015393;28;20033;-71
2022/02/03 16:59:48;;;;;;;14.40;6.72;;;10.50;62.20;;;;;;5015555;28;20030;-72
2022/02/03 17:02:15;;;;;;;19.52;7.60;;;10.50;62.60;;;;;;5015259;28;20482;-72
2022/02/03 17:04:41;;;;;;;23.98;9.45;;;10.50;62.50;;;;;;5015038;28;20076;-73
2022/02/03 17:07:07;;;;;;;21.52;9.43;;;10.40;62.20;;;;;;5014886;28;20410;-72
2022/02/03 17:09:33;;;;;;;21.00;9.77;;;10.40;62.30;;;;;;5014823;28;20430;-72
2022/02/03 17:11:59;;;;;;;23.85;9.85;;;10.40;62.60;;;;;;5012587;28;20029;-72
2022/02/03 17:14:28;;;;;;;21.70;8.93;;;10.30;62.70;;;;;;5012109;28;20048;-72
2022/02/03 17:16:54;;;;;;;15.48;7.70;;;10.30;62.90;;;;;;5011538;28;20033;-72
2022/02/03 17:19:22;;;;;;;14.80;7.43;;;10.30;63.10;;;;;;5014063;28;20112;-72
2022/02/03 17:21:48;;;;;;;17.25;7.13;;;10.30;63.50;;;;;;5007243;28;20085;-72
2022/02/03 17:24:13;;;;;;;13.85;7.10;;;10.30;63.50;;;;;;5003887;28;20034;-71
2022/02/03 17:26:54;;;;;;;16.88;7.03;;;10.20;63.40;;;;;;5002012;28;20112;-71
2022/02/03 18:09:13;;;;;;;21.80;8.97;;;9.50;66.00;;;;;;4992098;28;20850;-72
2022/02/03 18:30:09;;;;;;;25.87;10.10;;;9.40;66.70;;;;;;4996707;28;20113;-70
2022/02/03 18:51:35;;;;;;;20.13;11.07;;;9.30;67.30;;;;;;4993484;28;20045;-71
2022/02/03 18:54:16;;;;;;;26.90;11.40;;;9.30;67.70;;;;;;4993480;28;20027;-71
2022/02/03 18:59:28;;;;;;;25.70;10.63;;;9.20;67.90;;;;;;4993919;28;20494;-70
2022/02/03 19:21:49;;;;;;;25.83;13.70;;;9.00;68.50;;;;;;5010590;28;20041;-70
2022/02/03 20:01:35;;;;;;;39.83;16.33;;;8.80;69.20;;;;;;5012473;28;20036;-71
2022/02/03 20:11:36;;;;;;;28.73;14.87;;;8.70;69.60;;;;;;5011129;28;20025;-71
2022/02/03 20:14:08;;;;;;;29.33;16.07;;;8.70;69.70;;;;;;5011708;28;20486;-71
2022/02/03 20:16:34;;;;;;;31.33;16.35;;;8.60;69.60;;;;;;5013776;28;20104;-71
2022/02/03 20:19:00;;;;;;;33.57;14.67;;;8.60;69.70;;;;;;5015538;28;20156;-71
2022/02/03 20:21:30;;;;;;;29.00;15.70;;;8.50;69.90;;;;;;5015626;28;20025;-70
2022/02/03 20:23:55;;;;;;;35.60;15.10;;;8.50;70.10;;;;;;5013950;28;20046;-70
2022/02/03 20:26:21;;;;;;;29.53;13.97;;;8.50;70.10;;;;;;5015186;28;20490;-71
2022/02/03 20:28:47;;;;;;;36.07;14.40;;;8.40;70.10;;;;;;5015054;28;20093;-71
2022/02/03 20:31:13;;;;;;;26.27;14.47;;;8.40;70.00;;;;;;5015375;28;20474;-71
2022/02/03 20:33:39;;;;;;;26.60;14.27;;;8.40;70.00;;;;;;5015233;28;20105;-71
2022/02/03 20:36:09;;;;;;;30.17;16.23;;;8.50;70.80;;;;;;5014788;28;20117;-71
2022/02/03 20:38:35;;;;;;;32.33;15.63;;;8.50;69.90;;;;;;5012748;28;20379;-71
2022/02/03 20:41:03;;;;;;;29.93;15.13;;;8.50;69.80;;;;;;5015139;28;20018;-70
2022/02/03 20:43:29;;;;;;;33.20;15.70;;;8.40;70.20;;;;;;5015157;28;20105;-71
2022/02/03 20:45:55;;;;;;;26.27;14.70;;;8.40;70.10;;;;;;5014977;28;20432;-71
2022/02/03 20:48:21;;;;;;;30.13;15.33;;;8.30;70.00;;;;;;5014677;28;20026;-70
2022/02/03 20:50:49;;;;;;;26.17;14.83;;;8.30;70.40;;;;;;5014510;28;20018;-71
2022/02/03 20:53:15;;;;;;;29.00;14.60;;;8.20;70.60;;;;;;5014628;28;20021;-71
2022/02/03 20:55:45;;;;;;;26.30;14.13;;;8.20;70.50;;;;;;5014824;28;20115;-70
2022/02/03 20:58:15;;;;;;;33.10;16.60;;;8.20;70.70;;;;;;5011576;28;20137;-71
2022/02/03 21:01:00;;;;;;;31.70;16.50;;;8.20;70.70;;;;;;5013023;28;20014;-71
2022/02/03 21:03:35;;;;;;;29.90;17.63;;;8.30;70.80;;;;;;5011954;28;20406;-71
2022/02/03 21:06:04;;;;;;;41.23;18.93;;;8.30;71.00;;;;;;5014258;28;20018;-71
2022/02/03 21:08:32;;;;;;;36.50;18.27;;;8.30;70.70;;;;;;5014176;28;20084;-70
2022/02/03 21:10:59;;;;;;;34.50;17.03;;;8.30;70.60;;;;;;5014102;28;20073;-70
2022/02/03 21:13:24;;;;;;;28.47;18.57;;;8.30;70.50;;;;;;5011256;28;20037;-70
2022/02/03 21:15:52;;;;;;;38.07;18.53;;;8.30;70.70;;;;;;5014210;28;20026;-70
2022/02/03 21:18:19;;;;;;;42.43;22.93;;;8.20;70.90;;;;;;5014154;28;20377;-70
2022/02/03 21:20:46;;;;;;;53.57;27.60;;;8.20;71.00;;;;;;4998295;28;20482;-70
2022/02/03 21:23:12;;;;;;;45.80;27.73;;;8.20;71.30;;;;;;4994152;28;20030;-71
2022/02/03 21:25:44;;;;;;;52.10;27.10;;;8.20;71.20;;;;;;4990017;28;20378;-72
2022/02/03 21:28:20;;;;;;;44.95;25.77;;;8.20;71.20;;;;;;4990985;28;20709;-71
2022/02/03 21:30:48;;;;;;;50.27;27.43;;;8.30;71.30;;;;;;4992725;28;20037;-70
2022/02/03 21:33:20;;;;;;;44.53;26.10;;;8.20;71.10;;;;;;4994609;28;20375;-71
2022/02/03 21:35:47;;;;;;;44.83;25.90;;;8.20;71.30;;;;;;4994880;28;20501;-70
2022/02/03 21:38:13;;;;;;;41.20;25.47;;;8.20;72.20;;;;;;4994480;28;20014;-70
2022/02/03 21:40:39;;;;;;;45.07;25.93;;;8.20;71.60;;;;;;4994857;28;20105;-70
2022/02/03 21:43:05;;;;;;;55.20;25.27;;;8.30;71.40;;;;;;4994804;28;20348;-71
2022/02/03 21:45:31;;;;;;;42.57;24.03;;;8.20;71.50;;;;;;4994481;28;20510;-69
2022/02/03 21:48:00;;;;;;;52.40;25.27;;;8.20;71.60;;;;;;4994209;28;20033;-69
2022/02/03 21:50:32;;;;;;;39.10;22.17;;;8.20;71.80;;;;;;4994599;28;20026;-70
2022/02/03 21:52:59;;;;;;;44.60;24.38;;;8.20;71.90;;;;;;4994726;28;20025;-70
2022/02/03 21:55:28;;;;;;;43.17;23.20;;;8.20;72.10;;;;;;4993844;28;20046;-71
2022/02/03 21:57:55;;;;;;;42.67;23.80;;;8.20;72.10;;;;;;4994118;28;20018;-70
2022/02/03 22:00:22;;;;;;;38.43;23.90;;;8.20;72.00;;;;;;4994248;28;20495;-71
2022/02/03 22:02:48;;;;;;;51.43;27.30;;;8.10;71.80;;;;;;4993898;28;20080;-70
2022/02/03 22:05:14;;;;;;;45.33;26.27;;;8.20;72.10;;;;;;4994278;28;20360;-70
2022/02/03 22:07:42;;;;;;;51.80;27.93;;;8.20;72.10;;;;;;4994428;28;20054;-69
2022/02/03 22:10:10;;;;;;;44.83;26.73;;;8.20;72.20;;;;;;5030877;23;20058;-71
2022/02/03 22:12:36;;;;;;;48.87;27.27;;;8.20;72.30;;;;;;5011224;28;20025;-68
2022/02/03 22:15:02;;;;;;;48.47;27.10;;;8.10;72.30;;;;;;5011907;28;20359;-68
2022/02/03 22:17:28;;;;;;;51.00;27.13;;;8.20;72.30;;;;;;5013827;28;20385;-68
2022/02/03 22:19:55;;;;;;;47.87;28.03;;;8.20;72.40;;;;;;5013506;28;20113;-68
2022/02/03 22:38:40;;;;;;;50.97;29.57;;;8.10;72.60;;;;;;4991622;28;20076;-68
2022/02/03 22:48:51;;;;;;;67.10;31.13;;;8.10;71.90;;;;;;5013494;28;20034;-68
2022/02/03 22:51:17;;;;;;;59.60;32.43;;;8.00;71.90;;;;;;5013123;28;20036;-68
2022/02/03 22:53:43;;;;;;;60.47;32.90;;;8.00;72.20;;;;;;5013209;28;20193;-68
2022/02/03 22:56:12;;;;;;;53.73;31.37;;;7.90;72.20;;;;;;5013380;28;20037;-68
2022/02/03 23:01:23;;;;;;;58.13;33.50;;;7.90;72.50;;;;;;5013038;28;20125;-70
2022/02/03 23:03:49;;;;;;;58.37;33.17;;;7.90;72.60;;;;;;5013109;28;20022;-68
2022/02/03 23:06:15;;;;;;;53.23;32.10;;;7.90;72.70;;;;;;5013110;28;20032;-68
2022/02/03 23:14:19;;;;;;;61.38;35.22;;;7.70;73.10;;;;;;5013432;28;20026;-68
2022/02/03 23:17:02;;;;;;;58.00;36.30;;;7.70;73.30;;;;;;5013022;28;20502;-68
2022/02/03 23:22:14;;;;;;;61.03;36.30;;;7.60;73.40;;;;;;5013288;28;20037;-68
2022/02/03 23:24:47;;;;;;;61.20;35.07;;;7.60;73.40;;;;;;5013356;28;20995;-68
2022/02/03 23:29:46;;;;;;;61.75;34.85;;;7.60;73.50;;;;;;5013015;28;20022;-68
2022/02/03 23:32:13;;;;;;;60.90;35.73;;;7.60;73.50;;;;;;5012962;28;20030;-68
2022/02/03 23:34:41;;;;;;;58.17;35.03;;;7.60;73.40;;;;;;5013026;28;20026;-69
2022/02/03 23:37:07;;;;;;;57.57;34.93;;;7.50;73.50;;;;;;5012828;28;20042;-68
2022/02/03 23:39:57;;;;;;;61.57;36.90;;;7.40;73.60;;;;;;5012881;28;20019;-68
